createdAt,value
2019-05-10T00:02:18.015Z,94594.2
2019-05-10T00:07:14.238Z,94599.1
2019-05-10T00:12:10.702Z,94613.8
2019-05-10T00:17:07.107Z,94598.4
2019-05-10T00:22:03.695Z,94598.9
2019-05-10T00:27:00.190Z,94600.1
2019-05-10T00:31:56.440Z,94583.2
2019-05-10T00:36:52.846Z,94582.5
2019-05-10T00:41:48.970Z,94598.7
2019-05-10T00:46:45.231Z,94602.3
2019-05-10T00:51:41.675Z,94571.3
2019-05-10T00:56:37.529Z,94539.9
2019-05-10T01:01:33.873Z,94561.6
2019-05-10T01:06:30.311Z,94595.5
2019-05-10T01:11:26.689Z,94601.1
2019-05-10T01:16:23.109Z,94602.5
2019-05-10T01:21:19.475Z,94605.7
2019-05-10T01:26:17.568Z,94612
2019-05-10T01:31:13.845Z,94611.8
2019-05-10T01:36:10.199Z,94618.3
2019-05-10T01:41:06.293Z,94537.2
2019-05-10T01:46:02.508Z,94608.3
2019-05-10T01:50:58.607Z,94613.3
2019-05-10T01:55:55.002Z,94613.5
2019-05-10T02:00:50.446Z,94548.5
2019-05-10T02:05:46.813Z,94617.6
2019-05-10T02:10:43.111Z,94554.2
2019-05-10T02:15:39.559Z,94549.3
2019-05-10T02:20:35.786Z,94557
2019-05-10T02:25:32.499Z,94617.5
2019-05-10T02:30:28.522Z,94592
2019-05-10T02:35:24.956Z,94554.3
2019-05-10T02:40:21.763Z,94627.2
2019-05-10T02:45:18.223Z,94555.6
2019-05-10T02:50:13.939Z,94568.8
2019-05-10T02:55:10.501Z,94570.5
2019-05-10T03:00:06.959Z,94393.2
2019-05-10T03:05:03.287Z,94572.1
2019-05-10T03:09:59.795Z,94573.7
2019-05-10T03:14:56.359Z,94586.5
2019-05-10T03:19:52.825Z,94579.8
2019-05-10T03:24:49.450Z,94616.3
2019-05-10T03:29:45.521Z,94568.7
2019-05-10T03:34:41.918Z,94564
2019-05-10T03:39:38.178Z,94640.8
2019-05-10T03:44:34.496Z,94580.5
2019-05-10T03:49:31.895Z,94597.1
2019-05-10T03:54:28.096Z,94658.4
2019-05-10T03:59:24.829Z,94667.1
2019-05-10T04:04:21.032Z,94597.5
2019-05-10T04:09:17.752Z,94624.3
2019-05-10T04:14:13.911Z,94615.9
2019-05-10T04:24:06.695Z,94625.7
2019-05-10T04:29:03.170Z,94701.8
2019-05-10T04:33:59.161Z,94640
2019-05-10T04:38:55.472Z,94756.3
2019-05-10T04:43:51.881Z,94774
2019-05-10T04:48:48.106Z,94772.2
2019-05-10T04:53:44.460Z,94757.4
2019-05-10T04:58:41.080Z,94763.5
2019-05-10T05:03:37.333Z,94701.9
2019-05-10T05:08:34.316Z,94779.5
2019-05-10T05:13:30.445Z,94767
2019-05-10T05:18:27.296Z,94782.4
2019-05-10T05:23:23.503Z,94682.6
2019-05-10T05:28:23.113Z,94702.6
2019-05-10T05:33:16.422Z,94708.6
2019-05-10T05:38:12.828Z,94781.7
2019-05-10T05:43:09.874Z,94712.2
2019-05-10T05:48:05.615Z,94714.8
2019-05-10T05:53:02.051Z,94801.8
2019-05-10T05:57:59.102Z,94798.7
2019-05-10T06:02:55.046Z,94795.8
2019-05-10T06:07:52.217Z,94787.9
2019-05-10T06:12:50.286Z,94732
2019-05-10T06:17:43.083Z,94772
2019-05-10T06:22:43.741Z,94770.1
2019-05-10T06:27:40.793Z,94729.6
2019-05-10T06:32:31.957Z,94832.1
2019-05-10T06:37:31.299Z,94832.8
2019-05-10T06:42:28.659Z,94796.9
2019-05-10T06:47:22.818Z,94847.9
2019-05-10T06:52:21.731Z,94520.7
2019-05-10T06:57:17.355Z,94800.3
2019-05-10T07:02:12.575Z,94780.6
2019-05-10T07:07:09.679Z,94850.7
2019-05-10T07:12:09.220Z,94911.6
2019-05-10T07:17:03.072Z,94783.7
2019-05-10T07:21:58.991Z,94853.3
2019-05-10T07:26:56.463Z,94848.9
2019-05-10T07:31:52.529Z,94866.2
2019-05-10T07:36:49.210Z,94870.5
2019-05-10T07:41:46.216Z,94803.8
2019-05-10T07:46:46.373Z,94794.3
2019-05-10T07:51:39.223Z,94879
2019-05-10T07:56:38.787Z,94797.1
2019-05-10T08:01:34.803Z,94863.2
2019-05-10T08:06:31.821Z,94899.4
2019-05-10T08:11:25.724Z,94816.4
2019-05-10T08:16:23.025Z,94901
2019-05-10T08:21:22.068Z,94896.8
2019-05-10T08:26:19.686Z,94824.8
2019-05-10T08:31:12.329Z,94904.5
2019-05-10T08:36:08.149Z,94914.6
2019-05-10T08:41:07.965Z,94876.1
2019-05-10T08:46:02.601Z,94851.7
2019-05-10T08:51:03.903Z,94920.7
2019-05-10T08:55:53.886Z,94928.9
2019-05-10T09:00:57.581Z,94915.8
2019-05-10T09:05:46.137Z,94937.2
2019-05-10T09:10:42.321Z,94867
2019-05-10T09:15:40.910Z,95003.7
2019-05-10T09:20:35.304Z,94861.8
2019-05-10T09:25:33.708Z,94935.5
2019-05-10T09:30:27.744Z,94922.2
2019-05-10T09:35:23.295Z,94927.7
2019-05-10T09:40:21.842Z,94911.9
2019-05-10T09:45:16.045Z,94936.5
2019-05-10T09:50:12.706Z,94935.4
2019-05-10T09:55:14.289Z,94937.7
2019-05-10T10:00:07.345Z,94936.9
2019-05-10T10:05:01.620Z,94949.7
2019-05-10T10:09:58.124Z,94936.1
2019-05-10T10:14:54.473Z,94931.4
2019-05-10T10:19:50.787Z,94934.7
2019-05-10T10:24:48.811Z,94866.7
2019-05-10T10:29:43.911Z,94952.9
2019-05-10T10:34:42.923Z,94951.5
2019-05-10T10:39:37.156Z,94952.9
2019-05-10T10:44:33.588Z,94899.4
2019-05-10T10:49:31.861Z,94961.5
2019-05-10T10:54:27.863Z,94983.4
2019-05-10T10:59:22.501Z,94984.5
2019-05-10T11:04:18.665Z,94989.4
2019-05-10T11:09:15.352Z,95003.1
2019-05-10T11:14:11.907Z,94982.1
2019-05-10T11:19:10.989Z,94915
2019-05-10T11:24:10.070Z,94979.8
2019-05-10T11:29:01.982Z,94965.8
2019-05-10T11:34:00.961Z,94952.2
2019-05-10T11:38:58.355Z,94956.5
2019-05-10T11:43:52.485Z,94962
2019-05-10T11:48:50.959Z,94850.7
2019-05-10T11:53:48.801Z,94947
2019-05-10T11:58:45.787Z,94874.4
2019-05-10T12:03:42.357Z,94951.9
2019-05-10T12:08:37.089Z,94894.1
2019-05-10T12:13:33.267Z,94956.3
2019-05-10T12:18:32.315Z,94952.1
2019-05-10T12:23:30.922Z,94951.5
2019-05-10T12:28:28.431Z,94871.7
2019-05-10T12:33:24.826Z,94957.2
2019-05-10T12:38:15.632Z,94965.2
2019-05-10T12:43:12.860Z,94890.9
2019-05-10T12:48:09.288Z,94947.4
2019-05-10T12:53:13.622Z,94941.6
2019-05-10T12:58:02.897Z,94883
2019-05-10T13:03:11.436Z,94953.7
2019-05-10T13:07:55.470Z,94907.5
2019-05-10T13:12:52.081Z,94973.5
2019-05-10T13:17:50.766Z,94969.5
2019-05-10T13:22:45.241Z,94975
2019-05-10T13:27:41.601Z,94968.4
2019-05-10T13:32:38.012Z,94968.4
2019-05-10T13:37:35.307Z,94970.9
2019-05-10T13:42:36.299Z,94969.2
2019-05-10T13:47:28.123Z,94984
2019-05-10T13:52:29.566Z,94965.7
2019-05-10T13:57:20.607Z,94974
2019-05-10T14:02:22.299Z,94974
2019-05-10T14:07:14.058Z,94982.2
2019-05-10T14:12:10.301Z,94975.6
2019-05-10T14:17:06.628Z,94975.4
2019-05-10T14:22:03.095Z,94987.6
2019-05-10T14:26:59.513Z,94985.6
2019-05-10T14:31:55.949Z,94977.2
2019-05-10T14:36:52.458Z,94980.7
2019-05-10T14:41:50.660Z,94984.9
2019-05-10T14:46:45.533Z,94981.6
2019-05-10T14:51:57.632Z,94998.4
2019-05-10T14:56:38.709Z,94982.8
2019-05-10T15:01:36.670Z,94983.5
2019-05-10T15:06:36.734Z,94980.4
2019-05-10T15:11:31.553Z,94972.9
2019-05-10T15:16:30.172Z,94971.6
2019-05-10T15:21:21.947Z,94981.6
2019-05-10T15:26:19.367Z,94977.8
2019-05-10T15:31:16.041Z,94874.7
2019-05-10T15:36:12.453Z,94967.5
2019-05-10T15:41:09.258Z,94945.6
2019-05-10T15:46:05.763Z,94961.6
2019-05-10T15:51:02.385Z,94955.4
2019-05-10T15:56:03.824Z,94960
2019-05-10T16:00:56.415Z,94961.4
2019-05-10T16:06:00.193Z,94960.1
2019-05-10T16:10:48.458Z,94607
2019-05-10T16:15:45.010Z,94965.4
2019-05-10T16:20:41.591Z,94961.7
2019-05-10T16:25:41.978Z,94973
2019-05-10T16:30:36.444Z,94932.1
2019-05-10T16:35:38.553Z,94909.1
2019-05-10T16:40:27.455Z,94983.1
2019-05-10T16:45:23.588Z,94979.6
2019-05-10T16:50:20.249Z,94986.1
2019-05-10T16:55:16.457Z,94987
2019-05-10T17:00:12.950Z,94983.5
2019-05-10T17:05:14.424Z,94985.1
2019-05-10T17:10:06.688Z,94933
2019-05-10T17:15:03.307Z,94999.7
2019-05-10T17:19:58.854Z,95006.7
2019-05-10T17:24:56.741Z,94725.1
2019-05-10T17:29:52.085Z,95019.9
2019-05-10T17:34:48.610Z,95032.1
2019-05-10T17:39:45.028Z,95034.1
2019-05-10T17:44:43.639Z,95036.4
2019-05-10T17:49:38.220Z,95038.1
2019-05-10T17:54:39.059Z,95034.7
2019-05-10T17:59:31.217Z,95043.8
2019-05-10T18:04:27.781Z,95044.8
2019-05-10T18:09:24.354Z,95058.5
2019-05-10T18:14:20.289Z,94993.2
2019-05-10T18:19:18.983Z,95067.2
2019-05-10T18:24:12.864Z,95068.8
2019-05-10T18:29:09.309Z,95075.8
2019-05-10T18:34:05.888Z,95099.6
2019-05-10T18:39:02.397Z,95082.8
2019-05-10T18:43:58.806Z,95102.8
2019-05-10T18:48:55.867Z,95095.5
2019-05-10T18:53:52.203Z,95101.4
2019-05-10T18:58:48.899Z,95103.8
2019-05-10T19:03:44.942Z,95104.2
2019-05-10T19:08:44.051Z,95114.6
2019-05-10T19:13:46.086Z,95112.9
2019-05-10T19:18:34.350Z,95122.7
2019-05-10T19:23:30.884Z,95115.2
2019-05-10T19:28:28.507Z,95118.3
2019-05-10T19:33:29.505Z,95119
2019-05-10T19:38:20.432Z,95077.2
2019-05-10T19:43:21.446Z,95123.2
2019-05-10T19:48:13.131Z,95129.7
2019-05-10T19:53:09.691Z,95131.4
2019-05-10T19:58:06.075Z,95132.5
2019-05-10T20:03:03.075Z,95058.8
2019-05-10T20:07:59.154Z,95129
2019-05-10T20:12:56.082Z,95132.2
2019-05-10T20:17:52.614Z,95139.1
2019-05-10T20:22:48.750Z,94843.5
2019-05-10T20:27:45.320Z,95121.5
2019-05-10T20:32:41.921Z,95144.2
2019-05-10T20:37:38.646Z,95150.7
2019-05-10T20:42:35.169Z,95153.6
2019-05-10T20:47:31.242Z,95155.9
2019-05-10T20:52:27.807Z,95061
2019-05-10T20:57:24.322Z,95144.5
2019-05-10T21:02:20.810Z,95167.9
2019-05-10T21:07:17.190Z,95163
2019-05-10T21:12:13.491Z,95173.6
2019-05-10T21:17:09.982Z,95179.6
2019-05-10T21:22:06.285Z,95195.8
2019-05-10T21:27:02.678Z,95191.6
2019-05-10T21:31:59.105Z,95195.1
2019-05-10T21:36:55.439Z,95190.7
2019-05-10T21:41:51.761Z,95193.6
2019-05-10T21:46:48.104Z,95196
2019-05-10T21:51:44.554Z,95206.7
2019-05-10T21:56:41.132Z,95202.7
2019-05-10T22:01:37.537Z,95204.6
2019-05-10T22:06:34.019Z,95207.7
2019-05-10T22:11:30.303Z,95209.2
2019-05-10T22:16:26.682Z,95175.2
2019-05-10T22:21:23.363Z,95215.3
2019-05-10T22:26:19.912Z,95214.3
2019-05-10T22:31:16.321Z,95213.3
2019-05-10T22:36:13.239Z,95216.8
2019-05-10T22:41:09.387Z,95217.6
2019-05-10T22:46:05.897Z,95223.5
2019-05-10T22:51:02.620Z,95222
2019-05-10T22:55:59.210Z,95232.2
2019-05-10T23:00:55.634Z,95229.7
2019-05-10T23:05:52.009Z,95221.9
2019-05-10T23:10:48.266Z,95199.7
2019-05-10T23:15:44.564Z,95220.6
2019-05-10T23:20:40.961Z,95218.7
2019-05-10T23:25:37.292Z,95224.8
2019-05-10T23:30:33.728Z,95228.1
2019-05-10T23:35:30.482Z,95228.9
2019-05-10T23:40:26.911Z,95224.8
2019-05-10T23:45:23.618Z,95230.4
2019-05-10T23:50:20.349Z,95232.8
2019-05-10T23:55:17.002Z,95233.8
